createdAt,value
2023-04-03T00:00:02.569Z,285.00
2023-04-03T00:01:02.571Z,285.00
2023-04-03T00:02:02.566Z,286.00
2023-04-03T00:03:02.562Z,286.00
2023-04-03T00:04:02.599Z,285.00
2023-04-03T00:05:02.501Z,284.00
2023-04-03T00:06:02.478Z,281.00
2023-04-03T00:07:02.483Z,281.00
2023-04-03T00:08:02.486Z,282.00
2023-04-03T00:09:02.488Z,283.00
2023-04-03T00:10:02.469Z,282.00
2023-04-03T00:11:02.452Z,282.00
2023-04-03T00:12:02.433Z,282.00
2023-04-03T00:13:02.448Z,280.00
2023-04-03T00:14:02.408Z,280.00
2023-04-03T00:15:02.392Z,279.00
2023-04-03T00:16:02.385Z,281.00
2023-04-03T00:17:02.439Z,279.00
2023-04-03T00:18:02.402Z,280.00
2023-04-03T00:19:02.352Z,281.00
2023-04-03T00:20:02.345Z,280.00
2023-04-03T00:21:02.316Z,280.00
2023-04-03T00:22:02.313Z,278.00
2023-04-03T00:23:02.297Z,278.00
2023-04-03T00:24:02.285Z,280.00
2023-04-03T00:25:02.306Z,283.00
2023-04-03T00:26:02.269Z,283.00
2023-04-03T00:27:02.241Z,280.00
2023-04-03T00:28:02.240Z,278.00
2023-04-03T00:29:02.218Z,276.00
2023-04-03T00:30:02.217Z,278.00
2023-04-03T00:31:02.237Z,280.00
2023-04-03T00:32:02.158Z,281.00
2023-04-03T00:33:02.169Z,283.00
2023-04-03T00:34:02.126Z,283.00
2023-04-03T00:35:02.107Z,284.00
2023-04-03T00:36:02.155Z,286.00
2023-04-03T00:37:02.180Z,288.00
2023-04-03T00:38:02.065Z,288.00
2023-04-03T00:39:02.035Z,289.00
2023-04-03T00:40:02.110Z,289.00
2023-04-03T00:41:02.044Z,288.00
2023-04-03T00:42:02.042Z,289.00
2023-04-03T00:43:02.044Z,287.00
2023-04-03T00:44:02.064Z,284.00
2023-04-03T00:45:02.069Z,282.00
2023-04-03T00:46:02.122Z,283.00
2023-04-03T00:47:02.079Z,285.00
2023-04-03T00:48:02.118Z,286.00
2023-04-03T00:49:02.110Z,284.00
2023-04-03T00:50:02.097Z,284.00
2023-04-03T00:51:02.108Z,285.00
2023-04-03T00:52:02.145Z,285.00
2023-04-03T00:53:02.134Z,285.00
2023-04-03T00:54:02.222Z,285.00
2023-04-03T00:55:02.153Z,288.00
2023-04-03T00:56:02.169Z,285.00
2023-04-03T00:57:02.220Z,284.00
2023-04-03T00:58:02.168Z,284.00
2023-04-03T00:59:02.170Z,282.00
2023-04-03T01:00:02.169Z,281.00
2023-04-03T01:01:02.184Z,283.00
2023-04-03T01:02:02.275Z,283.00
2023-04-03T01:03:02.243Z,284.00
2023-04-03T01:04:02.265Z,284.00
2023-04-03T01:05:02.274Z,281.00
2023-04-03T01:06:02.222Z,282.00
2023-04-03T01:07:02.278Z,285.00
2023-04-03T01:08:02.236Z,285.00
2023-04-03T01:09:02.295Z,286.00
2023-04-03T01:10:02.368Z,285.00
2023-04-03T01:11:02.286Z,286.00
2023-04-03T01:12:02.273Z,287.00
2023-04-03T01:13:02.300Z,286.00
2023-04-03T01:14:02.299Z,283.00
2023-04-03T01:15:02.342Z,285.00
2023-04-03T01:16:02.380Z,286.00
2023-04-03T01:17:02.316Z,286.00
2023-04-03T01:18:02.340Z,288.00
2023-04-03T01:19:02.330Z,286.00
2023-04-03T01:20:02.363Z,285.00
2023-04-03T01:21:02.333Z,285.00
2023-04-03T01:22:02.344Z,284.00
2023-04-03T01:23:02.356Z,286.00
2023-04-03T01:24:02.353Z,287.00
2023-04-03T01:25:02.371Z,288.00
2023-04-03T01:26:02.390Z,288.00
2023-04-03T01:27:02.387Z,286.00
2023-04-03T01:28:02.387Z,287.00
2023-04-03T01:29:02.358Z,289.00
2023-04-03T01:30:02.366Z,289.00
2023-04-03T01:31:02.361Z,290.00
2023-04-03T01:33:05.494Z,300.00
2023-04-03T01:34:05.469Z,291.00
2023-04-03T01:35:05.455Z,292.00
2023-04-03T01:36:05.466Z,291.00
2023-04-03T01:37:05.439Z,290.00
2023-04-03T01:38:05.420Z,290.00
2023-04-03T01:39:05.416Z,288.00
2023-04-03T01:40:05.407Z,287.00
2023-04-03T01:41:05.404Z,285.00
2023-04-03T01:42:05.389Z,286.00
2023-04-03T01:43:05.388Z,289.00
2023-04-03T01:44:05.351Z,288.00
2023-04-03T01:45:05.363Z,291.00
2023-04-03T01:46:05.386Z,293.00
2023-04-03T01:47:05.338Z,293.00
2023-04-03T01:48:05.320Z,294.00
2023-04-03T01:49:05.303Z,292.00
2023-04-03T01:50:05.282Z,290.00
2023-04-03T01:51:05.274Z,288.00
2023-04-03T01:52:05.252Z,289.00
2023-04-03T01:53:05.254Z,287.00
2023-04-03T01:54:05.251Z,285.00
2023-04-03T01:55:05.226Z,284.00
2023-04-03T01:56:05.221Z,285.00
2023-04-03T01:57:05.247Z,283.00
2023-04-03T01:58:05.196Z,280.00
2023-04-03T01:59:05.197Z,282.00
2023-04-03T02:00:05.186Z,282.00
2023-04-03T02:01:05.260Z,282.00
2023-04-03T02:02:05.159Z,283.00
2023-04-03T02:03:05.233Z,282.00
2023-04-03T02:04:05.204Z,282.00
2023-04-03T02:05:05.141Z,282.00
2023-04-03T02:06:05.147Z,281.00
2023-04-03T02:07:05.116Z,283.00
2023-04-03T02:08:05.114Z,283.00
2023-04-03T02:09:05.109Z,284.00
2023-04-03T02:10:05.085Z,285.00
2023-04-03T02:11:05.087Z,284.00
2023-04-03T02:12:05.060Z,283.00
2023-04-03T02:13:05.057Z,279.00
2023-04-03T02:14:05.166Z,278.00
2023-04-03T02:15:05.052Z,277.00
2023-04-03T02:16:05.023Z,279.00
2023-04-03T02:17:05.011Z,281.00
2023-04-03T02:18:07.761Z,282.00
2023-04-03T02:19:04.994Z,283.00
2023-04-03T02:20:04.988Z,281.00
2023-04-03T02:21:04.957Z,282.00
2023-04-03T02:22:04.946Z,282.00
2023-04-03T02:23:04.929Z,282.00
2023-04-03T02:24:04.928Z,283.00
2023-04-03T02:25:04.907Z,284.00
2023-04-03T02:26:04.878Z,285.00
2023-04-03T02:27:04.868Z,284.00
2023-04-03T02:28:04.859Z,283.00
2023-04-03T02:29:04.835Z,283.00
2023-04-03T02:30:04.816Z,285.00
2023-04-03T02:31:04.819Z,287.00
2023-04-03T02:32:04.806Z,284.00
2023-04-03T02:33:04.832Z,285.00
2023-04-03T02:34:04.765Z,285.00
2023-04-03T02:35:04.743Z,286.00
2023-04-03T02:36:04.763Z,287.00
2023-04-03T02:37:04.718Z,286.00
2023-04-03T02:38:04.715Z,288.00
2023-04-03T02:39:04.688Z,284.00
2023-04-03T02:40:04.682Z,283.00
2023-04-03T02:41:04.673Z,284.00
2023-04-03T02:42:04.652Z,283.00
2023-04-03T02:43:04.630Z,283.00
2023-04-03T02:44:04.619Z,281.00
2023-04-03T02:45:04.621Z,282.00
2023-04-03T02:46:04.641Z,281.00
2023-04-03T02:47:04.582Z,279.00
2023-04-03T02:48:04.662Z,281.00
2023-04-03T02:49:04.561Z,284.00
2023-04-03T02:50:04.717Z,285.00
2023-04-03T02:51:04.539Z,286.00
2023-04-03T02:52:04.527Z,285.00
2023-04-03T02:53:04.503Z,281.00
2023-04-03T02:54:04.498Z,281.00
2023-04-03T02:55:04.530Z,283.00
2023-04-03T02:56:04.477Z,285.00
2023-04-03T02:57:04.500Z,284.00
2023-04-03T02:58:04.455Z,285.00
2023-04-03T02:59:04.450Z,285.00
2023-04-03T03:00:04.449Z,284.00
2023-04-03T03:01:04.411Z,282.00
2023-04-03T03:02:04.440Z,282.00
2023-04-03T03:03:04.466Z,281.00
2023-04-03T03:04:04.392Z,284.00
2023-04-03T03:05:04.418Z,283.00
2023-04-03T03:06:04.352Z,284.00
2023-04-03T03:07:04.328Z,287.00
2023-04-03T03:08:04.325Z,289.00
2023-04-03T03:09:04.308Z,290.00
2023-04-03T03:10:04.300Z,288.00
2023-04-03T03:11:04.293Z,289.00
2023-04-03T03:12:04.267Z,290.00
2023-04-03T03:13:04.261Z,291.00
2023-04-03T03:14:04.255Z,290.00
2023-04-03T03:15:04.240Z,288.00
2023-04-03T03:16:04.262Z,290.00
2023-04-03T03:17:04.196Z,290.00
2023-04-03T03:18:04.205Z,290.00
2023-04-03T03:19:04.178Z,289.00
2023-04-03T03:20:04.166Z,287.00
2023-04-03T03:21:04.198Z,285.00
2023-04-03T03:22:04.155Z,288.00
2023-04-03T03:23:04.135Z,289.00
2023-04-03T03:24:04.107Z,290.00
2023-04-03T03:25:04.113Z,291.00
2023-04-03T03:26:04.084Z,289.00
2023-04-03T03:27:04.069Z,286.00
2023-04-03T03:28:04.059Z,287.00
2023-04-03T03:29:04.039Z,287.00
2023-04-03T03:30:04.023Z,288.00
2023-04-03T03:31:04.060Z,286.00
2023-04-03T03:32:03.995Z,287.00
2023-04-03T03:33:04.010Z,286.00
2023-04-03T03:34:03.960Z,287.00
2023-04-03T03:35:03.951Z,286.00
2023-04-03T03:36:04.008Z,288.00
2023-04-03T03:37:03.920Z,286.00
2023-04-03T03:38:03.905Z,287.00
2023-04-03T03:39:03.881Z,287.00
2023-04-03T03:40:03.864Z,289.00
2023-04-03T03:41:03.850Z,290.00
2023-04-03T03:42:03.823Z,289.00
2023-04-03T03:43:03.801Z,286.00
2023-04-03T03:44:03.798Z,285.00
2023-04-03T03:45:03.773Z,287.00
2023-04-03T03:46:03.794Z,285.00
2023-04-03T03:47:03.741Z,286.00
2023-04-03T03:48:03.742Z,288.00
2023-04-03T03:49:03.728Z,287.00
2023-04-03T03:50:03.710Z,289.00
2023-04-03T03:51:03.706Z,293.00
2023-04-03T03:52:03.695Z,294.00
2023-04-03T03:53:03.677Z,294.00
2023-04-03T03:54:03.662Z,294.00
2023-04-03T03:55:03.642Z,294.00
2023-04-03T03:56:03.650Z,289.00
2023-04-03T03:57:03.654Z,289.00
2023-04-03T03:58:03.617Z,289.00
2023-04-03T03:59:03.615Z,289.00
2023-04-03T04:00:03.588Z,289.00
2023-04-03T04:01:03.572Z,287.00
2023-04-03T04:02:03.598Z,284.00
2023-04-03T04:03:03.618Z,284.00
2023-04-03T04:04:03.598Z,284.00
2023-04-03T04:05:03.547Z,286.00
2023-04-03T04:06:03.526Z,288.00
2023-04-03T04:07:03.505Z,287.00
2023-04-03T04:08:03.482Z,291.00
2023-04-03T04:09:03.474Z,294.00
2023-04-03T04:10:03.469Z,292.00
2023-04-03T04:11:03.453Z,291.00
2023-04-03T04:12:03.459Z,291.00
2023-04-03T04:13:03.420Z,292.00
2023-04-03T04:14:03.412Z,295.00
2023-04-03T04:15:03.418Z,295.00
2023-04-03T04:16:03.393Z,295.00
2023-04-03T04:17:03.567Z,291.00
2023-04-03T04:18:03.440Z,291.00
2023-04-03T04:19:03.361Z,289.00
2023-04-03T04:20:03.338Z,287.00
2023-04-03T04:21:03.336Z,285.00
2023-04-03T04:22:03.335Z,284.00
2023-04-03T04:23:03.332Z,285.00
2023-04-03T04:24:03.339Z,283.00
2023-04-03T04:25:03.392Z,286.00
2023-04-03T04:26:03.360Z,287.00
2023-04-03T04:27:03.376Z,285.00
2023-04-03T04:28:03.378Z,282.00
2023-04-03T04:29:03.395Z,283.00
2023-04-03T04:30:03.400Z,283.00
2023-04-03T04:31:03.441Z,285.00
2023-04-03T04:32:03.421Z,285.00
2023-04-03T04:33:03.513Z,286.00
2023-04-03T04:34:03.434Z,284.00
2023-04-03T04:35:03.475Z,284.00
2023-04-03T04:36:03.630Z,284.00
2023-04-03T04:37:03.640Z,285.00
2023-04-03T04:38:03.486Z,286.00
2023-04-03T04:39:03.477Z,289.00
2023-04-03T04:40:03.504Z,288.00
2023-04-03T04:41:03.498Z,287.00
2023-04-03T04:42:03.526Z,289.00
2023-04-03T04:43:03.514Z,287.00
2023-04-03T04:44:03.539Z,285.00
2023-04-03T04:45:03.558Z,284.00
2023-04-03T04:46:03.593Z,284.00
2023-04-03T04:47:03.550Z,285.00
2023-04-03T04:48:03.583Z,285.00
2023-04-03T04:49:03.578Z,286.00
2023-04-03T04:50:03.583Z,285.00
2023-04-03T04:51:03.641Z,286.00
2023-04-03T04:52:03.617Z,286.00
2023-04-03T04:53:03.613Z,288.00
2023-04-03T04:54:03.626Z,290.00
2023-04-03T04:55:03.634Z,289.00
2023-04-03T04:56:03.664Z,291.00
2023-04-03T04:57:03.697Z,287.00
2023-04-03T04:58:03.681Z,290.00
2023-04-03T04:59:03.690Z,292.00
2023-04-03T05:00:03.696Z,292.00
2023-04-03T05:01:03.745Z,292.00
2023-04-03T05:02:03.818Z,291.00
2023-04-03T05:03:03.904Z,290.00
2023-04-03T05:04:03.788Z,295.00
2023-04-03T05:05:05.117Z,293.00
2023-04-03T05:06:03.829Z,293.00
2023-04-03T05:07:03.857Z,293.00
2023-04-03T05:08:03.877Z,293.00
2023-04-03T05:09:03.882Z,292.00
2023-04-03T05:10:03.923Z,294.00
2023-04-03T05:11:03.904Z,293.00
2023-04-03T05:12:03.957Z,293.00
2023-04-03T05:13:03.930Z,296.00
2023-04-03T05:14:03.960Z,296.00
2023-04-03T05:15:03.972Z,295.00
2023-04-03T05:16:04.036Z,294.00
2023-04-03T05:17:04.017Z,296.00
2023-04-03T05:18:04.038Z,294.00
2023-04-03T05:19:04.048Z,293.00
2023-04-03T05:20:04.064Z,297.00
2023-04-03T05:21:04.077Z,295.00
2023-04-03T05:22:04.123Z,295.00
2023-04-03T05:23:04.122Z,295.00
2023-04-03T05:24:04.137Z,294.00
2023-04-03T05:25:04.158Z,294.00
2023-04-03T05:26:04.154Z,294.00
2023-04-03T05:27:04.169Z,292.00
2023-04-03T05:28:04.207Z,289.00
2023-04-03T05:29:04.207Z,289.00
2023-04-03T05:30:04.240Z,290.00
2023-04-03T05:31:04.236Z,292.00
2023-04-03T05:32:04.269Z,291.00
2023-04-03T05:33:04.309Z,290.00
2023-04-03T05:34:04.300Z,289.00
2023-04-03T05:35:04.306Z,287.00
2023-04-03T05:36:04.352Z,287.00
2023-04-03T05:37:04.341Z,289.00
2023-04-03T05:38:04.353Z,288.00
2023-04-03T05:39:04.375Z,286.00
2023-04-03T05:40:04.401Z,290.00
2023-04-03T05:41:04.409Z,291.00
2023-04-03T05:42:04.454Z,291.00
2023-04-03T05:43:04.450Z,291.00
2023-04-03T05:44:04.487Z,290.00
2023-04-03T05:45:04.485Z,288.00
2023-04-03T05:46:04.545Z,286.00
2023-04-03T05:47:04.539Z,286.00
2023-04-03T05:48:04.609Z,289.00
2023-04-03T05:49:04.679Z,289.00
2023-04-03T05:50:04.612Z,291.00
2023-04-03T05:51:04.599Z,290.00
2023-04-03T05:52:04.604Z,288.00
2023-04-03T05:53:04.632Z,289.00
2023-04-03T05:54:04.581Z,289.00
2023-04-03T05:55:04.579Z,290.00
2023-04-03T05:56:04.598Z,290.00
2023-04-03T05:57:04.722Z,290.00
2023-04-03T05:58:04.568Z,289.00
2023-04-03T05:59:04.554Z,293.00
2023-04-03T06:00:04.567Z,291.00
2023-04-03T06:01:04.598Z,290.00
2023-04-03T06:02:04.548Z,294.00
2023-04-03T06:03:04.710Z,297.00
2023-04-03T06:04:04.698Z,299.00
2023-04-03T06:05:04.632Z,301.00
2023-04-03T06:06:04.520Z,298.00
2023-04-03T06:07:04.561Z,299.00
2023-04-03T06:08:04.497Z,299.00
2023-04-03T06:09:04.486Z,300.00
2023-04-03T06:10:04.477Z,298.00
2023-04-03T06:11:04.476Z,297.00
2023-04-03T06:12:04.531Z,295.00
2023-04-03T06:13:04.509Z,294.00
2023-04-03T06:14:04.570Z,296.00
2023-04-03T06:15:04.480Z,293.00
2023-04-03T06:16:04.505Z,293.00
2023-04-03T06:17:04.537Z,292.00
2023-04-03T06:18:04.644Z,290.00
2023-04-03T06:19:04.608Z,289.00
2023-04-03T06:20:04.580Z,288.00
2023-04-03T06:21:04.623Z,287.00
2023-04-03T06:22:04.663Z,289.00
2023-04-03T06:23:05.779Z,289.00
2023-04-03T06:24:04.692Z,290.00
2023-04-03T06:25:04.722Z,290.00
2023-04-03T06:26:04.755Z,292.00
2023-04-03T06:27:04.763Z,295.00
2023-04-03T06:28:04.772Z,294.00
2023-04-03T06:29:04.808Z,296.00
2023-04-03T06:30:04.816Z,295.00
2023-04-03T06:31:04.882Z,295.00
2023-04-03T06:32:04.907Z,294.00
2023-04-03T06:33:04.942Z,294.00
2023-04-03T06:34:06.181Z,295.00
2023-04-03T06:35:04.969Z,292.00
2023-04-03T06:36:05.037Z,293.00
2023-04-03T06:37:04.986Z,292.00
2023-04-03T06:38:05.005Z,293.00
2023-04-03T06:39:05.028Z,293.00
2023-04-03T06:40:05.075Z,294.00
2023-04-03T06:41:05.064Z,296.00
2023-04-03T06:42:05.091Z,294.00
2023-04-03T06:43:05.115Z,292.00
2023-04-03T06:44:05.145Z,295.00
2023-04-03T06:45:05.161Z,295.00
2023-04-03T06:46:05.202Z,295.00
2023-04-03T06:47:05.187Z,295.00
2023-04-03T06:48:05.249Z,294.00
2023-04-03T06:49:05.208Z,294.00
2023-04-03T06:50:05.243Z,294.00
2023-04-03T06:51:05.267Z,291.00
2023-04-03T06:52:05.279Z,289.00
2023-04-03T06:53:05.305Z,293.00
2023-04-03T06:54:05.317Z,290.00
2023-04-03T06:55:05.357Z,289.00
2023-04-03T06:56:05.359Z,288.00
2023-04-03T06:57:05.401Z,287.00
2023-04-03T06:58:05.385Z,287.00
2023-04-03T06:59:05.676Z,288.00
2023-04-03T07:00:05.397Z,288.00
2023-04-03T07:01:05.428Z,290.00
2023-04-03T07:02:05.584Z,290.00
2023-04-03T07:03:05.527Z,289.00
2023-04-03T07:04:05.470Z,291.00
2023-04-03T07:05:05.506Z,292.00
2023-04-03T07:06:05.540Z,288.00
2023-04-03T07:07:05.512Z,286.00
2023-04-03T07:08:05.561Z,288.00
2023-04-03T07:09:05.553Z,287.00
2023-04-03T07:10:05.580Z,288.00
2023-04-03T07:11:05.584Z,286.00
2023-04-03T07:12:05.616Z,287.00
2023-04-03T07:13:05.631Z,287.00
2023-04-03T07:14:05.733Z,286.00
2023-04-03T07:15:05.682Z,285.00
2023-04-03T07:16:05.792Z,285.00
2023-04-03T07:17:05.704Z,286.00
2023-04-03T07:18:05.804Z,287.00
2023-04-03T07:19:05.750Z,286.00
2023-04-03T07:20:05.768Z,284.00
2023-04-03T07:21:05.854Z,285.00
2023-04-03T07:22:05.801Z,287.00
2023-04-03T07:23:05.843Z,287.00
2023-04-03T07:24:05.884Z,286.00
2023-04-03T07:25:05.873Z,285.00
2023-04-03T07:26:05.882Z,285.00
2023-04-03T07:27:05.917Z,284.00
2023-04-03T07:28:05.920Z,287.00
2023-04-03T07:29:06.015Z,285.00
2023-04-03T07:30:06.000Z,284.00
2023-04-03T07:31:05.990Z,285.00
2023-04-03T07:32:06.093Z,283.00
2023-04-03T07:33:06.092Z,281.00
2023-04-03T07:34:06.031Z,282.00
2023-04-03T07:35:06.091Z,283.00
2023-04-03T07:36:06.274Z,281.00
2023-04-03T07:37:06.103Z,282.00
2023-04-03T07:38:06.135Z,283.00
2023-04-03T07:39:06.153Z,285.00
2023-04-03T07:40:06.185Z,286.00
2023-04-03T07:41:06.186Z,284.00
2023-04-03T07:42:06.224Z,286.00
2023-04-03T07:43:06.247Z,285.00
2023-04-03T07:44:06.259Z,284.00
2023-04-03T07:45:06.255Z,282.00
2023-04-03T07:46:06.338Z,282.00
2023-04-03T07:47:06.300Z,286.00
2023-04-03T07:48:06.301Z,284.00
2023-04-03T07:49:06.307Z,285.00
2023-04-03T07:50:06.486Z,285.00
2023-04-03T07:51:06.336Z,286.00
2023-04-03T07:52:06.354Z,285.00
2023-04-03T07:53:06.381Z,283.00
2023-04-03T07:54:06.385Z,283.00
2023-04-03T07:55:06.415Z,285.00
2023-04-03T07:56:06.421Z,287.00
2023-04-03T07:57:06.429Z,288.00
2023-04-03T07:58:06.451Z,287.00
2023-04-03T07:59:06.457Z,288.00
2023-04-03T08:00:06.455Z,291.00
2023-04-03T08:01:06.497Z,292.00
2023-04-03T08:02:06.483Z,290.00
2023-04-03T08:03:06.847Z,291.00
2023-04-03T08:04:06.587Z,291.00
2023-04-03T08:05:06.689Z,293.00
2023-04-03T08:06:09.164Z,297.00
2023-04-03T08:07:07.559Z,298.00
2023-04-03T08:08:06.535Z,296.00
2023-04-03T08:09:06.528Z,294.00
2023-04-03T08:10:06.536Z,295.00
2023-04-03T08:11:06.507Z,296.00
2023-04-03T08:12:06.537Z,295.00
2023-04-03T08:13:06.519Z,293.00
2023-04-03T08:14:06.505Z,295.00
2023-04-03T08:15:06.502Z,294.00
2023-04-03T08:16:06.481Z,294.00
2023-04-03T08:17:06.549Z,293.00
2023-04-03T08:18:06.633Z,290.00
2023-04-03T08:19:09.696Z,289.00
2023-04-03T08:20:07.482Z,289.00
2023-04-03T08:21:06.476Z,288.00
2023-04-03T08:22:06.461Z,291.00
2023-04-03T08:23:06.454Z,289.00
2023-04-03T08:24:06.413Z,292.00
2023-04-03T08:25:06.434Z,292.00
2023-04-03T08:26:06.406Z,294.00
2023-04-03T08:27:06.392Z,295.00
2023-04-03T08:28:06.389Z,294.00
2023-04-03T08:29:06.511Z,293.00
2023-04-03T08:30:06.373Z,293.00
2023-04-03T08:31:06.446Z,292.00
2023-04-03T08:32:06.364Z,294.00
2023-04-03T08:33:06.424Z,295.00
2023-04-03T08:34:06.340Z,296.00
2023-04-03T08:35:06.349Z,294.00
2023-04-03T08:36:06.378Z,294.00
2023-04-03T08:37:06.349Z,293.00
2023-04-03T08:38:06.321Z,290.00
2023-04-03T08:39:06.340Z,291.00
2023-04-03T08:40:06.331Z,292.00
2023-04-03T08:41:06.321Z,290.00
2023-04-03T08:42:06.324Z,288.00
2023-04-03T08:43:06.318Z,287.00
2023-04-03T08:44:06.322Z,288.00
2023-04-03T08:45:06.297Z,287.00
2023-04-03T08:46:06.299Z,286.00
2023-04-03T08:47:06.284Z,286.00
2023-04-03T08:48:06.385Z,287.00
2023-04-03T08:49:06.284Z,287.00
2023-04-03T08:50:06.350Z,289.00
2023-04-03T08:51:10.841Z,290.00
2023-04-03T08:52:07.237Z,291.00
2023-04-03T08:53:06.247Z,294.00
2023-04-03T08:54:06.214Z,295.00
2023-04-03T08:55:06.205Z,291.00
2023-04-03T08:56:06.201Z,291.00
2023-04-03T08:57:06.273Z,291.00
2023-04-03T08:58:06.180Z,292.00
2023-04-03T08:59:06.280Z,294.00
2023-04-03T09:00:06.165Z,293.00
2023-04-03T09:01:06.149Z,291.00
2023-04-03T09:02:06.199Z,290.00
2023-04-03T09:03:06.151Z,291.00
2023-04-03T09:04:06.147Z,291.00
2023-04-03T09:05:06.108Z,291.00
2023-04-03T09:06:06.168Z,292.00
2023-04-03T09:07:06.078Z,292.00
2023-04-03T09:08:06.048Z,292.00
2023-04-03T09:09:06.075Z,294.00
2023-04-03T09:10:06.045Z,294.00
2023-04-03T09:11:06.020Z,295.00
2023-04-03T09:12:06.032Z,296.00
2023-04-03T09:13:06.004Z,295.00
2023-04-03T09:14:05.996Z,294.00
2023-04-03T09:15:06.012Z,295.00
2023-04-03T09:16:06.069Z,295.00
2023-04-03T09:17:05.991Z,295.00
2023-04-03T09:18:05.996Z,295.00
2023-04-03T09:19:05.991Z,295.00
2023-04-03T09:20:05.960Z,296.00
2023-04-03T09:21:05.955Z,298.00
2023-04-03T09:22:06.033Z,296.00
2023-04-03T09:23:05.928Z,293.00
2023-04-03T09:24:05.939Z,293.00
2023-04-03T09:25:05.911Z,291.00
2023-04-03T09:26:05.940Z,288.00
2023-04-03T09:27:05.937Z,290.00
2023-04-03T09:28:05.904Z,290.00
2023-04-03T09:29:05.885Z,290.00
2023-04-03T09:30:05.874Z,292.00
2023-04-03T09:31:05.893Z,291.00
2023-04-03T09:32:05.879Z,290.00
2023-04-03T09:33:06.015Z,292.00
2023-04-03T09:34:05.846Z,292.00
2023-04-03T09:35:18.916Z,293.00
2023-04-03T09:36:06.852Z,293.00
2023-04-03T09:37:05.810Z,293.00
2023-04-03T09:38:05.885Z,291.00
2023-04-03T09:39:05.796Z,289.00
2023-04-03T09:40:05.784Z,291.00
2023-04-03T09:41:05.830Z,286.00
2023-04-03T09:42:05.801Z,286.00
2023-04-03T09:43:05.758Z,287.00
2023-04-03T09:44:05.768Z,288.00
2023-04-03T09:45:05.737Z,288.00
2023-04-03T09:46:05.723Z,286.00
2023-04-03T09:47:05.752Z,286.00
2023-04-03T09:48:08.339Z,289.00
2023-04-03T09:49:09.573Z,292.00
2023-04-03T09:50:05.802Z,292.00
2023-04-03T09:51:05.665Z,293.00
2023-04-03T09:52:05.655Z,293.00
2023-04-03T09:53:05.647Z,294.00
2023-04-03T09:54:05.737Z,292.00
2023-04-03T09:55:05.614Z,290.00
2023-04-03T09:56:05.619Z,290.00
2023-04-03T09:57:05.599Z,291.00
2023-04-03T09:58:05.584Z,289.00
2023-04-03T09:59:05.584Z,289.00
2023-04-03T10:00:05.588Z,288.00
2023-04-03T10:01:05.592Z,288.00
2023-04-03T10:02:05.515Z,290.00
2023-04-03T10:03:05.580Z,290.00
2023-04-03T10:04:05.584Z,293.00
2023-04-03T10:05:10.037Z,293.00
2023-04-03T10:06:05.474Z,290.00
2023-04-03T10:07:05.453Z,288.00
2023-04-03T10:08:05.424Z,289.00
2023-04-03T10:09:05.422Z,289.00
2023-04-03T10:10:05.496Z,290.00
2023-04-03T10:11:05.398Z,292.00
2023-04-03T10:12:05.410Z,294.00
2023-04-03T10:13:05.368Z,293.00
2023-04-03T10:14:06.250Z,292.00
2023-04-03T10:15:05.377Z,294.00
2023-04-03T10:16:05.340Z,295.00
2023-04-03T10:17:05.428Z,294.00
2023-04-03T10:18:17.867Z,294.00
2023-04-03T10:19:06.293Z,294.00
2023-04-03T10:20:05.270Z,293.00
2023-04-03T10:21:07.556Z,293.00
2023-04-03T10:22:05.291Z,292.00
2023-04-03T10:23:05.346Z,292.00
2023-04-03T10:24:05.410Z,292.00
2023-04-03T10:25:05.412Z,294.00
2023-04-03T10:26:05.504Z,294.00
2023-04-03T10:27:05.435Z,292.00
2023-04-03T10:28:05.478Z,292.00
2023-04-03T10:29:05.518Z,292.00
2023-04-03T10:30:05.588Z,291.00
2023-04-03T10:31:05.685Z,292.00
2023-04-03T10:32:05.674Z,292.00
2023-04-03T10:33:05.786Z,292.00
2023-04-03T10:34:05.895Z,291.00
2023-04-03T10:35:05.853Z,291.00
2023-04-03T10:36:05.927Z,289.00
2023-04-03T10:37:05.913Z,291.00
2023-04-03T10:38:05.981Z,292.00
2023-04-03T10:39:06.024Z,292.00
2023-04-03T10:40:06.109Z,292.00
2023-04-03T10:41:06.108Z,293.00
2023-04-03T10:42:16.698Z,292.00
2023-04-03T10:43:07.151Z,289.00
2023-04-03T10:44:06.241Z,288.00
2023-04-03T10:45:06.171Z,287.00
2023-04-03T10:46:06.122Z,287.00
2023-04-03T10:47:06.092Z,288.00
2023-04-03T10:48:06.081Z,291.00
2023-04-03T10:49:06.049Z,294.00
2023-04-03T10:50:06.073Z,294.00
2023-04-03T10:51:06.029Z,292.00
2023-04-03T10:52:06.063Z,288.00
2023-04-03T10:53:05.994Z,289.00
2023-04-03T10:54:05.978Z,290.00
2023-04-03T10:55:06.090Z,290.00
2023-04-03T10:56:05.929Z,289.00
2023-04-03T10:57:12.724Z,291.00
2023-04-03T10:58:06.941Z,289.00
2023-04-03T10:59:05.901Z,288.00
2023-04-03T11:00:05.927Z,289.00
2023-04-03T11:01:05.912Z,291.00
2023-04-03T11:02:05.869Z,291.00
2023-04-03T11:03:05.884Z,290.00
2023-04-03T11:04:06.111Z,292.00
2023-04-03T11:05:05.872Z,295.00
2023-04-03T11:06:05.821Z,295.00
2023-04-03T11:07:05.799Z,294.00
2023-04-03T11:08:05.782Z,293.00
2023-04-03T11:09:05.764Z,293.00
2023-04-03T11:10:05.787Z,293.00
2023-04-03T11:11:05.828Z,293.00
2023-04-03T11:12:05.932Z,293.00
2023-04-03T11:13:05.958Z,296.00
2023-04-03T11:14:06.088Z,299.00
2023-04-03T11:15:06.072Z,297.00
2023-04-03T11:16:06.170Z,298.00
2023-04-03T11:17:06.102Z,299.00
2023-04-03T11:18:06.121Z,299.00
2023-04-03T11:19:06.157Z,300.00
2023-04-03T11:20:06.047Z,301.00
2023-04-03T11:21:06.053Z,301.00
2023-04-03T11:22:06.037Z,299.00
2023-04-03T11:23:06.052Z,297.00
2023-04-03T11:24:06.010Z,295.00
2023-04-03T11:25:05.986Z,297.00
2023-04-03T11:26:06.040Z,297.00
2023-04-03T11:27:06.015Z,297.00
2023-04-03T11:28:06.065Z,298.00
2023-04-03T11:29:06.132Z,293.00
2023-04-03T11:30:06.264Z,294.00
2023-04-03T11:31:06.309Z,295.00
2023-04-03T11:32:06.300Z,296.00
2023-04-03T11:33:06.403Z,296.00
2023-04-03T11:34:06.400Z,296.00
2023-04-03T11:35:06.492Z,296.00
2023-04-03T11:36:19.083Z,297.00
2023-04-03T11:37:07.510Z,297.00
2023-04-03T11:38:06.477Z,298.00
2023-04-03T11:39:06.478Z,296.00
2023-04-03T11:40:06.460Z,297.00
2023-04-03T11:41:06.543Z,297.00
2023-04-03T11:42:12.834Z,300.00
2023-04-03T11:43:07.440Z,300.00
2023-04-03T11:44:06.441Z,300.00
2023-04-03T11:45:06.411Z,300.00
2023-04-03T11:46:06.509Z,301.00
2023-04-03T11:47:06.472Z,301.00
2023-04-03T11:48:20.793Z,302.00
2023-04-03T11:49:07.353Z,301.00
2023-04-03T11:50:06.475Z,300.00
2023-04-03T11:51:06.397Z,300.00
2023-04-03T11:52:06.330Z,299.00
2023-04-03T11:53:06.326Z,298.00
2023-04-03T11:54:06.297Z,297.00
2023-04-03T11:55:06.295Z,300.00
2023-04-03T11:56:06.279Z,299.00
2023-04-03T11:57:06.307Z,300.00
2023-04-03T11:58:06.298Z,300.00
2023-04-03T11:59:06.299Z,302.00
2023-04-03T12:00:06.337Z,302.00
2023-04-03T12:01:06.360Z,305.00
2023-04-03T12:02:06.459Z,304.00
2023-04-03T12:03:06.467Z,304.00
2023-04-03T12:04:06.433Z,301.00
2023-04-03T12:05:06.342Z,300.00
2023-04-03T12:06:06.360Z,299.00
2023-04-03T12:07:06.355Z,300.00
2023-04-03T12:08:06.371Z,302.00
2023-04-03T12:09:06.367Z,302.00
2023-04-03T12:10:06.346Z,303.00
2023-04-03T12:11:06.339Z,300.00
2023-04-03T12:12:06.326Z,296.00
2023-04-03T12:13:06.364Z,294.00
2023-04-03T12:14:06.405Z,292.00
2023-04-03T12:15:06.438Z,294.00
2023-04-03T12:16:06.524Z,293.00
2023-04-03T12:17:06.606Z,295.00
2023-04-03T12:18:06.744Z,294.00
2023-04-03T12:19:06.654Z,295.00
2023-04-03T12:20:06.706Z,297.00
2023-04-03T12:21:06.774Z,296.00
2023-04-03T12:22:06.817Z,299.00
2023-04-03T12:23:07.258Z,296.00
2023-04-03T12:24:06.894Z,296.00
2023-04-03T12:25:06.935Z,296.00
2023-04-03T12:26:06.987Z,296.00
2023-04-03T12:27:07.027Z,296.00
2023-04-03T12:28:07.080Z,296.00
2023-04-03T12:29:07.138Z,295.00